Huron Regional Airport
KHON : now visible

Airfield :











YOU CAN JOIN US ON...

 
LOGIN :

Register | Disclaimer

   EN    FR    IT 

 









Legend :    VFR   Marginal VFR   IFR   Intensive IFR   Very Intensive IFR
Visi :
Ceiling :
>= 8 km
>= 3000ft
5 to 8 km
1000 to 3000 ft
1500m to 5 km
500 to 1000 ft
800 to 1500m
200 to 500 ft
< 800m
< 200 ft
Symbols :   Thunderstorms  Fog  Heavy snow  Heavy precipitations  Wind > 20 kt






- Airport Elevation : 1289 ft
- IATA code : HON


KHON - Huron Regional

CURRENT METAR :
  • 081855Z AUTO 31019G29KT 10SM CLR 10/M03 A3005 RMK AO2 PK WND 33030/1827 SLP182 T01001028

EXPIRED METARs :
  • 081755Z AUTO 33022G28KT 10SM BKN080 08/M02 A3005 RMK AO2 PK WND 33032/1702 SLP183 T00831022 10094 20061 50015
  • 081655Z AUTO 34021G36KT 10SM BKN080 BKN090 08/M02 A3006 RMK AO2 PK WND 34036/1559 SLP185 T00831022

TAF KHON
Valid from the 08 at 18:00 until the 09 at 18:00 UTC


081730Z 0818/0918 32021G32KT P6SM FEW100
FM082200 32024G38KT P6SM FEW100
FM090000 31018G25KT P6SM SCT180
FM090200 31009KT P6SM SCT150
FM091200 30015G26KT P6SM FEW080
FM091700 33020G30KT P6SM BKN060



MET'MAP, your aeronautical weather chart ! - Copyright ORBIFLY December 2007 - Disclaimer

ORBIFLY MET'MAP TEAM :

Programming & Development : Alexandra Zaïnal
Concept & original design : Baudouin d'Aumeries
Assistance for programming : Marc-Olivier Méhu
Technical & hardware support : Manuel Goepfert

Contact : metmap@orbifly.com




SOURCES & CREDITS :

   NOAA       Earth
Advisory